Aberdeen, Pennsylvania
Current Conditions -  °F | °C
As of 1:56 PM on Thursday 23 Oct 2014 (Local Time) from KMDT Reporting Station
Broken Clouds Broken Clouds  
Wind Chill: 59°   Ceiling: 4000
Heat Index: 59°   Visibility: 10mi
Dew Point: 44°   Wind: 14mph
Humidity: 58%   Direction: 340°NNW
Pressure: 29.83"   Gusts: 26mph
Location:  40.1674°N, 76.6045°W
Report Text: KMDT 231756Z 34012G23KT 10SM BKN040 15/07 A2983 RMK AO2 PK WND 32027/1709 SLP103 T01500067 10156 20117 57016
Loading
Personal Weather Stations






























Interactive Weather Map
Tropical Storm Tracking
New forecast layout! Learn more

10-Day Weather Forecast

Advertisements
Track Severe Weather on mobile